createdAt,value
2018-06-21T00:00:42.661Z,100587.00
2018-06-21T00:03:11.762Z,100592.00
2018-06-21T00:05:40.932Z,100583.00
2018-06-21T00:08:10.100Z,100586.00
2018-06-21T00:10:39.182Z,100578.00
2018-06-21T00:13:08.316Z,100579.00
2018-06-21T00:15:37.519Z,100576.00
2018-06-21T00:18:06.722Z,100568.00
2018-06-21T00:20:35.857Z,100569.00
2018-06-21T00:23:05.162Z,100569.00
2018-06-21T00:25:34.304Z,100565.00
2018-06-21T00:28:03.442Z,100564.00
2018-06-21T00:30:32.551Z,100565.00
2018-06-21T00:33:01.805Z,100557.00
2018-06-21T00:35:30.841Z,100554.00
2018-06-21T00:38:00.001Z,100550.00
2018-06-21T00:40:29.129Z,100547.00
2018-06-21T00:42:58.263Z,100544.00
2018-06-21T00:45:27.418Z,100536.00
2018-06-21T00:47:56.655Z,100540.00
2018-06-21T00:50:25.806Z,100532.00
2018-06-21T00:52:57.927Z,100535.00
2018-06-21T00:56:16.063Z,100530.00
2018-06-21T00:58:46.165Z,100522.00
2018-06-21T01:01:16.485Z,100521.00
2018-06-21T01:03:46.432Z,100509.00
2018-06-21T01:06:15.763Z,100506.00
2018-06-21T01:08:45.152Z,100506.00
2018-06-21T01:11:14.292Z,100503.00
2018-06-21T01:13:43.550Z,100460.00
2018-06-21T01:16:12.530Z,100493.00
2018-06-21T01:18:41.703Z,100499.00
2018-06-21T01:21:10.867Z,100489.00
2018-06-21T01:23:39.986Z,100489.00
2018-06-21T01:26:09.069Z,100487.00
2018-06-21T01:28:38.194Z,100485.00
2018-06-21T01:31:07.303Z,100478.00
2018-06-21T01:33:36.452Z,100477.00
2018-06-21T01:36:05.641Z,100472.00
2018-06-21T01:38:34.853Z,100470.00
2018-06-21T01:41:04.813Z,100471.00
2018-06-21T01:43:34.164Z,100459.00
2018-06-21T01:46:03.394Z,100466.00
2018-06-21T01:48:32.511Z,100450.00
2018-06-21T01:51:01.806Z,100443.00
2018-06-21T01:53:30.916Z,100451.00
2018-06-21T01:56:00.135Z,100447.00
2018-06-21T01:58:29.243Z,100452.00
2018-06-21T02:00:58.416Z,100449.00
2018-06-21T02:03:27.718Z,100436.00
2018-06-21T02:05:56.921Z,100431.00
2018-06-21T02:08:26.158Z,100418.00
2018-06-21T02:10:55.373Z,100424.00
2018-06-21T02:13:24.350Z,100420.00
2018-06-21T02:15:53.502Z,100418.00
2018-06-21T02:18:22.657Z,100418.00
2018-06-21T02:20:51.749Z,100413.00
2018-06-21T02:23:21.313Z,100411.00
2018-06-21T02:25:50.741Z,100400.00
2018-06-21T02:28:19.948Z,100399.00
2018-06-21T02:30:49.143Z,100393.00
2018-06-21T02:33:18.280Z,100392.00
2018-06-21T02:35:47.370Z,100381.00
2018-06-21T02:38:16.571Z,100378.00
2018-06-21T02:40:45.875Z,100372.00
2018-06-21T02:43:15.046Z,100367.00
2018-06-21T02:45:44.155Z,100375.00
2018-06-21T02:48:13.438Z,100367.00
2018-06-21T02:50:42.685Z,100374.00
2018-06-21T02:53:11.851Z,100359.00
2018-06-21T02:55:40.993Z,100366.00
2018-06-21T02:58:10.173Z,100354.00
2018-06-21T03:00:39.257Z,100347.00
2018-06-21T03:03:08.370Z,100344.00
2018-06-21T03:05:37.556Z,100344.00
2018-06-21T03:08:06.716Z,100335.00
2018-06-21T03:10:35.854Z,100330.00
2018-06-21T03:13:05.006Z,100334.00
2018-06-21T03:15:34.104Z,100319.00
2018-06-21T03:18:03.208Z,100314.00
2018-06-21T03:20:32.414Z,100324.00
2018-06-21T03:23:01.520Z,100309.00
2018-06-21T03:25:30.622Z,100330.00
2018-06-21T03:27:59.757Z,100317.00
2018-06-21T03:30:28.903Z,100316.00
2018-06-21T03:32:58.083Z,100319.00
2018-06-21T03:35:27.178Z,100319.00
2018-06-21T03:37:56.271Z,100326.00
2018-06-21T03:40:25.545Z,100337.00
2018-06-21T03:42:54.739Z,100334.00
2018-06-21T03:45:23.885Z,100350.00
2018-06-21T03:47:53.006Z,100352.00
2018-06-21T03:50:22.129Z,100349.00
2018-06-21T03:52:51.311Z,100341.00
2018-06-21T03:55:20.344Z,100355.00
2018-06-21T03:57:49.438Z,100368.00
2018-06-21T04:00:18.767Z,100359.00
2018-06-21T04:02:47.885Z,100365.00
2018-06-21T04:05:17.117Z,100341.00
2018-06-21T04:07:46.212Z,100336.00
2018-06-21T04:10:15.291Z,100337.00
2018-06-21T04:12:44.370Z,100330.00
2018-06-21T04:15:13.657Z,100330.00
2018-06-21T04:17:42.802Z,100331.00
2018-06-21T04:20:11.910Z,100334.00
2018-06-21T04:22:41.172Z,100326.00
2018-06-21T04:25:10.250Z,100319.00
2018-06-21T04:27:39.368Z,100333.00
2018-06-21T04:30:08.703Z,100326.00
2018-06-21T04:32:40.900Z,100340.00
2018-06-21T04:35:10.099Z,100325.00
2018-06-21T04:37:39.406Z,100319.00
2018-06-21T04:40:08.558Z,100311.00
2018-06-21T04:42:37.726Z,100306.00
2018-06-21T04:45:07.177Z,100303.00
2018-06-21T04:47:36.329Z,100287.00
2018-06-21T04:50:05.503Z,100281.00
2018-06-21T04:52:34.691Z,100270.00
2018-06-21T04:55:03.842Z,100281.00
2018-06-21T04:57:32.976Z,100282.00
2018-06-21T05:00:02.106Z,100286.00
2018-06-21T05:02:31.141Z,100286.00
2018-06-21T05:05:00.248Z,100292.00
2018-06-21T05:07:29.331Z,100285.00
2018-06-21T05:09:58.399Z,100295.00
2018-06-21T05:12:27.514Z,100307.00
2018-06-21T05:14:56.589Z,100305.00
2018-06-21T05:17:25.793Z,100305.00
2018-06-21T05:19:55.113Z,100288.00
2018-06-21T05:22:24.218Z,100303.00
2018-06-21T05:24:53.366Z,100311.00
2018-06-21T05:27:22.417Z,100319.00
2018-06-21T05:29:51.546Z,100324.00
2018-06-21T05:32:20.630Z,100334.00
2018-06-21T05:34:49.878Z,100338.00
2018-06-21T05:37:19.041Z,100334.00
2018-06-21T05:39:48.258Z,100335.00
2018-06-21T05:42:17.356Z,100346.00
2018-06-21T05:44:46.794Z,100336.00
2018-06-21T05:47:16.134Z,100330.00
2018-06-21T05:49:45.188Z,100320.00
2018-06-21T05:52:14.293Z,100334.00
2018-06-21T05:54:43.763Z,100348.00
2018-06-21T05:57:13.181Z,100342.00
2018-06-21T05:59:42.566Z,100335.00
2018-06-21T06:02:11.886Z,100335.00
2018-06-21T06:04:41.080Z,100337.00
2018-06-21T06:07:10.277Z,100338.00
2018-06-21T06:09:39.367Z,100335.00
2018-06-21T06:12:08.589Z,100323.00
2018-06-21T06:14:37.938Z,100309.00
2018-06-21T06:17:07.045Z,100310.00
2018-06-21T06:19:36.138Z,100300.00
2018-06-21T06:22:05.310Z,100300.00
2018-06-21T06:24:34.581Z,100305.00
2018-06-21T06:27:03.597Z,100302.00
2018-06-21T06:29:32.705Z,100288.00
2018-06-21T06:32:01.801Z,100295.00
2018-06-21T06:34:31.774Z,100293.00
2018-06-21T06:37:00.873Z,100292.00
2018-06-21T06:39:30.031Z,100301.00
2018-06-21T06:41:59.110Z,100334.00
2018-06-21T06:44:28.250Z,100339.00
2018-06-21T06:46:57.305Z,100326.00
2018-06-21T06:49:26.392Z,100313.00
2018-06-21T06:51:55.471Z,100319.00
2018-06-21T06:54:24.748Z,100325.00
2018-06-21T06:56:54.181Z,100335.00
2018-06-21T06:59:23.378Z,100340.00
2018-06-21T07:01:52.518Z,100354.00
2018-06-21T07:04:21.592Z,100339.00
2018-06-21T07:06:50.706Z,100343.00
2018-06-21T07:09:19.920Z,100336.00
2018-06-21T07:11:49.053Z,100333.00
2018-06-21T07:14:18.165Z,100317.00
2018-06-21T07:16:47.137Z,100308.00
2018-06-21T07:19:16.345Z,100303.00
2018-06-21T07:21:45.417Z,100301.00
2018-06-21T07:24:14.414Z,100301.00
2018-06-21T07:26:43.929Z,100280.00
2018-06-21T07:29:13.115Z,100264.00
2018-06-21T07:31:42.202Z,100279.00
2018-06-21T07:34:11.289Z,100292.00
2018-06-21T07:36:40.404Z,100294.00
2018-06-21T07:39:10.325Z,100315.00
2018-06-21T07:41:39.491Z,100322.00
2018-06-21T07:44:08.567Z,100332.00
2018-06-21T07:46:37.695Z,100317.00
2018-06-21T07:49:06.735Z,100309.00
2018-06-21T07:51:35.917Z,100323.00
2018-06-21T07:54:05.327Z,100326.00
2018-06-21T07:56:34.660Z,100320.00
2018-06-21T07:59:03.894Z,100307.00
2018-06-21T08:01:33.338Z,100302.00
2018-06-21T08:04:02.844Z,100299.00
2018-06-21T08:06:32.117Z,100292.00
2018-06-21T08:09:01.300Z,100303.00
2018-06-21T08:11:30.378Z,100311.00
2018-06-21T08:13:59.197Z,100298.00
2018-06-21T08:16:28.355Z,100291.00
2018-06-21T08:18:57.206Z,100288.00
2018-06-21T08:21:26.316Z,100275.00
2018-06-21T08:23:55.399Z,100274.00
2018-06-21T08:26:24.459Z,100269.00
2018-06-21T08:28:53.558Z,100289.00
2018-06-21T08:31:22.599Z,100288.00
2018-06-21T08:33:51.625Z,100297.00
2018-06-21T08:36:20.812Z,100291.00
2018-06-21T08:38:49.959Z,100299.00
2018-06-21T08:41:19.024Z,100296.00
2018-06-21T08:43:48.189Z,100298.00
2018-06-21T08:46:17.056Z,100300.00
2018-06-21T08:48:46.258Z,100299.00
2018-06-21T08:51:15.513Z,100298.00
2018-06-21T08:53:44.631Z,100300.00
2018-06-21T08:56:13.776Z,100299.00
2018-06-21T08:58:42.985Z,100292.00
2018-06-21T09:01:12.203Z,100298.00
2018-06-21T09:03:41.356Z,100298.00
2018-06-21T09:06:10.457Z,100299.00
2018-06-21T09:08:39.597Z,100291.00
2018-06-21T09:11:08.701Z,100294.00
2018-06-21T09:13:38.396Z,100289.00
2018-06-21T09:16:10.521Z,100294.00
2018-06-21T09:18:39.786Z,100287.00
2018-06-21T09:21:08.971Z,100288.00
2018-06-21T09:23:38.089Z,100295.00
2018-06-21T09:26:07.205Z,100284.00
2018-06-21T09:28:36.277Z,100280.00
2018-06-21T09:31:05.563Z,100285.00
2018-06-21T09:33:34.712Z,100280.00
2018-06-21T09:36:03.768Z,100282.00
2018-06-21T09:38:38.260Z,100286.00
2018-06-21T09:41:12.808Z,100293.00
2018-06-21T09:43:50.299Z,100292.00
2018-06-21T09:46:33.878Z,100298.00
2018-06-21T09:48:55.286Z,100296.00
2018-06-21T09:51:24.359Z,100297.00
2018-06-21T09:53:53.479Z,100295.00
2018-06-21T09:56:22.645Z,100299.00
2018-06-21T09:58:52.405Z,100304.00
2018-06-21T10:01:21.743Z,100304.00
2018-06-21T10:03:50.862Z,100305.00
2018-06-21T10:06:19.924Z,100307.00
2018-06-21T10:08:50.395Z,100309.00
2018-06-21T10:11:19.423Z,100301.00
2018-06-21T10:13:48.475Z,100296.00
2018-06-21T10:16:17.791Z,100298.00
2018-06-21T10:18:46.998Z,100299.00
2018-06-21T10:21:16.134Z,100314.00
2018-06-21T10:23:45.247Z,100428.00
2018-06-21T10:26:14.510Z,100417.00
2018-06-21T10:28:43.603Z,100429.00
2018-06-21T10:31:12.750Z,100430.00
2018-06-21T10:33:41.830Z,100420.00
2018-06-21T10:36:10.864Z,100427.00
2018-06-21T10:38:39.913Z,100412.00
2018-06-21T10:41:08.987Z,100397.00
2018-06-21T10:43:38.063Z,100404.00
2018-06-21T10:46:07.100Z,100394.00
2018-06-21T10:48:36.205Z,100392.00
2018-06-21T10:51:05.272Z,100390.00
2018-06-21T10:53:34.423Z,100385.00
2018-06-21T10:56:03.647Z,100385.00
2018-06-21T10:58:33.430Z,100385.00
2018-06-21T11:01:02.716Z,100387.00
2018-06-21T11:03:31.952Z,100382.00
2018-06-21T11:06:01.184Z,100374.00
2018-06-21T11:08:30.380Z,100382.00
2018-06-21T11:10:59.417Z,100393.00
2018-06-21T11:13:28.581Z,100390.00
2018-06-21T11:15:57.476Z,100388.00
2018-06-21T11:18:26.509Z,100389.00
2018-06-21T11:20:55.565Z,100386.00
2018-06-21T11:23:24.596Z,100370.00
2018-06-21T11:25:53.689Z,100388.00
2018-06-21T11:28:22.751Z,100408.00
2018-06-21T11:30:51.826Z,100418.00
2018-06-21T11:33:20.936Z,100426.00
2018-06-21T11:35:49.975Z,100430.00
2018-06-21T11:38:19.085Z,100447.00
2018-06-21T11:40:48.147Z,100446.00
2018-06-21T11:43:17.300Z,100433.00
2018-06-21T11:45:46.459Z,100456.00
2018-06-21T11:48:15.688Z,100432.00
2018-06-21T11:50:44.922Z,100432.00
2018-06-21T11:53:14.175Z,100444.00
2018-06-21T11:55:43.537Z,100444.00
2018-06-21T11:58:13.121Z,100444.00
2018-06-21T12:00:42.444Z,100438.00
2018-06-21T12:03:11.724Z,100428.00
2018-06-21T12:05:40.838Z,100434.00
2018-06-21T12:08:09.939Z,100420.00
2018-06-21T12:10:39.360Z,100435.00
2018-06-21T12:13:08.603Z,100424.00
2018-06-21T12:15:37.473Z,100409.00
2018-06-21T12:18:06.814Z,100419.00
2018-06-21T12:20:35.958Z,100426.00
2018-06-21T12:23:05.120Z,100444.00
2018-06-21T12:25:37.556Z,100428.00
2018-06-21T12:28:06.869Z,100441.00
2018-06-21T12:30:35.902Z,100456.00
2018-06-21T12:33:05.042Z,100462.00
2018-06-21T12:35:34.185Z,100470.00
2018-06-21T12:38:03.357Z,100472.00
2018-06-21T12:40:32.513Z,100451.00
2018-06-21T12:43:01.648Z,100468.00
2018-06-21T12:45:30.827Z,100469.00
2018-06-21T12:47:59.932Z,100476.00
2018-06-21T12:50:29.011Z,100489.00
2018-06-21T12:52:58.801Z,100503.00
2018-06-21T12:55:27.922Z,100482.00
2018-06-21T12:57:57.124Z,100499.00
2018-06-21T13:00:26.223Z,100517.00
2018-06-21T13:02:55.334Z,100514.00
2018-06-21T13:05:24.716Z,100532.00
2018-06-21T13:07:54.128Z,100500.00
2018-06-21T13:10:40.411Z,100503.00
2018-06-21T13:13:22.705Z,100520.00
2018-06-21T13:15:51.868Z,100566.00
2018-06-21T13:18:21.949Z,100542.00
2018-06-21T13:20:51.046Z,100548.00
2018-06-21T13:23:20.157Z,100552.00
2018-06-21T13:25:49.250Z,100569.00
2018-06-21T13:28:18.320Z,100565.00
2018-06-21T13:30:47.337Z,100603.00
2018-06-21T13:33:16.499Z,100582.00
2018-06-21T13:35:46.157Z,100572.00
2018-06-21T13:38:15.320Z,100597.00
2018-06-21T13:40:44.596Z,100597.00
2018-06-21T13:43:13.877Z,100602.00
2018-06-21T13:45:42.957Z,100613.00
2018-06-21T13:48:12.779Z,100606.00
2018-06-21T13:50:41.952Z,100606.00
2018-06-21T13:53:11.069Z,100622.00
2018-06-21T13:55:40.156Z,100627.00
2018-06-21T13:58:09.353Z,100621.00
2018-06-21T14:00:38.431Z,100627.00
2018-06-21T14:03:07.646Z,100634.00
2018-06-21T14:05:36.730Z,100649.00
2018-06-21T14:08:06.753Z,100655.00
2018-06-21T14:10:35.869Z,100651.00
2018-06-21T14:13:05.151Z,100654.00
2018-06-21T14:15:34.606Z,100647.00
2018-06-21T14:18:03.993Z,100652.00
2018-06-21T14:20:33.210Z,100651.00
2018-06-21T14:23:02.430Z,100666.00
2018-06-21T14:25:31.611Z,100671.00
2018-06-21T14:28:00.682Z,100675.00
2018-06-21T14:30:30.000Z,100688.00
2018-06-21T14:32:59.361Z,100699.00
2018-06-21T14:35:28.444Z,100697.00
2018-06-21T14:37:57.659Z,100703.00
2018-06-21T14:40:26.562Z,100712.00
2018-06-21T14:42:55.632Z,100711.00
2018-06-21T14:45:24.949Z,100709.00
2018-06-21T14:47:54.152Z,100715.00
2018-06-21T14:50:22.875Z,100720.00
2018-06-21T14:52:52.232Z,100726.00
2018-06-21T14:55:21.286Z,100722.00
2018-06-21T14:57:50.477Z,100726.00
2018-06-21T15:00:19.701Z,100749.00
2018-06-21T15:02:49.241Z,100741.00
2018-06-21T15:05:18.377Z,100754.00
2018-06-21T15:07:47.427Z,100770.00
2018-06-21T15:10:16.898Z,100780.00
2018-06-21T15:12:46.086Z,100762.00
2018-06-21T15:15:15.211Z,100758.00
2018-06-21T15:17:44.604Z,100759.00
2018-06-21T15:20:13.908Z,100768.00
2018-06-21T15:22:46.494Z,100759.00
2018-06-21T15:25:15.903Z,100753.00
2018-06-21T15:27:45.112Z,100749.00
2018-06-21T15:30:14.605Z,100748.00
2018-06-21T15:32:43.987Z,100749.00
2018-06-21T15:35:13.760Z,100742.00
2018-06-21T15:37:43.090Z,100742.00
2018-06-21T15:40:12.741Z,100732.00
2018-06-21T15:42:41.961Z,100739.00
2018-06-21T15:45:11.151Z,100745.00
2018-06-21T15:47:40.343Z,100748.00
2018-06-21T15:50:09.652Z,100754.00
2018-06-21T15:52:38.885Z,100763.00
2018-06-21T15:55:08.093Z,100749.00
2018-06-21T15:57:37.376Z,100756.00
2018-06-21T16:00:06.684Z,100753.00
2018-06-21T16:02:35.963Z,100757.00
2018-06-21T16:05:05.269Z,100740.00
2018-06-21T16:07:35.127Z,100767.00
2018-06-21T16:10:04.285Z,100769.00
2018-06-21T16:12:33.627Z,100773.00
2018-06-21T16:15:02.915Z,100786.00
2018-06-21T16:17:32.224Z,100813.00
2018-06-21T16:20:01.462Z,100807.00
2018-06-21T16:22:30.614Z,100804.00
2018-06-21T16:24:59.839Z,100810.00
2018-06-21T16:27:28.953Z,100813.00
2018-06-21T16:29:58.097Z,100813.00
2018-06-21T16:32:27.215Z,100814.00
2018-06-21T16:34:56.530Z,100800.00
2018-06-21T16:37:26.007Z,100802.00
2018-06-21T16:39:55.183Z,100792.00
2018-06-21T16:42:24.667Z,100793.00
2018-06-21T16:44:53.838Z,100784.00
2018-06-21T16:47:23.066Z,100791.00
2018-06-21T16:49:52.230Z,100794.00
2018-06-21T16:52:21.407Z,100785.00
2018-06-21T16:54:50.485Z,100790.00
2018-06-21T16:57:19.607Z,100800.00
2018-06-21T16:59:48.892Z,100803.00
2018-06-21T17:02:18.089Z,100802.00
2018-06-21T17:04:47.180Z,100801.00
2018-06-21T17:07:16.350Z,100796.00
2018-06-21T17:09:45.534Z,100797.00
2018-06-21T17:12:14.740Z,100798.00
2018-06-21T17:14:43.902Z,100817.00
2018-06-21T17:17:13.013Z,100824.00
2018-06-21T17:19:42.096Z,100819.00
2018-06-21T17:22:11.197Z,100817.00
2018-06-21T17:24:40.261Z,100817.00
2018-06-21T17:27:09.532Z,100812.00
2018-06-21T17:29:38.869Z,100823.00
2018-06-21T17:32:08.312Z,100819.00
2018-06-21T17:34:38.082Z,100811.00
2018-06-21T17:37:07.280Z,100816.00
2018-06-21T17:39:37.683Z,100800.00
2018-06-21T17:42:07.091Z,100800.00
2018-06-21T17:44:36.635Z,100805.00
2018-06-21T17:47:06.089Z,100806.00
2018-06-21T17:49:35.919Z,100814.00
2018-06-21T17:52:05.214Z,100813.00
2018-06-21T17:54:34.363Z,100807.00
2018-06-21T17:57:03.521Z,100827.00
2018-06-21T17:59:33.002Z,100826.00
2018-06-21T18:02:02.355Z,100815.00
2018-06-21T18:04:31.429Z,100813.00
2018-06-21T18:07:00.862Z,100822.00
2018-06-21T18:09:31.728Z,100808.00
2018-06-21T18:12:00.855Z,100824.00
2018-06-21T18:14:30.569Z,100824.00
2018-06-21T18:16:59.866Z,100834.00
2018-06-21T18:19:29.202Z,100820.00
2018-06-21T18:21:58.591Z,100853.00
2018-06-21T18:24:27.811Z,100846.00
2018-06-21T18:26:56.934Z,100833.00
2018-06-21T18:29:26.036Z,100821.00
2018-06-21T18:31:55.412Z,100836.00
2018-06-21T18:34:25.357Z,100843.00
2018-06-21T18:36:56.366Z,100853.00
2018-06-21T18:39:25.570Z,100848.00
2018-06-21T18:41:54.720Z,100855.00
2018-06-21T18:44:23.808Z,100855.00
2018-06-21T18:46:52.911Z,100845.00
2018-06-21T18:49:22.218Z,100845.00
2018-06-21T18:51:51.722Z,100833.00
2018-06-21T18:54:21.614Z,100834.00
2018-06-21T18:56:51.005Z,100826.00
2018-06-21T18:59:20.474Z,100847.00
2018-06-21T19:01:50.207Z,100838.00
2018-06-21T19:04:19.717Z,100837.00
2018-06-21T19:06:54.178Z,100834.00
2018-06-21T19:09:29.260Z,100843.00
2018-06-21T19:12:04.294Z,100838.00
2018-06-21T19:14:33.444Z,100854.00
2018-06-21T19:17:02.510Z,100847.00
2018-06-21T19:19:31.643Z,100846.00
2018-06-21T19:22:00.834Z,100856.00
2018-06-21T19:24:29.932Z,100849.00
2018-06-21T19:26:59.007Z,100864.00
2018-06-21T19:29:28.322Z,100850.00
2018-06-21T19:31:57.678Z,100853.00
2018-06-21T19:34:26.933Z,100856.00
2018-06-21T19:36:56.288Z,100846.00
2018-06-21T19:39:25.815Z,100844.00
2018-06-21T19:41:55.117Z,100851.00
2018-06-21T19:44:27.827Z,100851.00
2018-06-21T19:46:57.145Z,100821.00
2018-06-21T19:49:26.985Z,100851.00
2018-06-21T19:51:56.508Z,100844.00
2018-06-21T19:54:25.934Z,100853.00
2018-06-21T19:56:55.206Z,100852.00
2018-06-21T19:59:24.333Z,100852.00
2018-06-21T20:01:53.507Z,100848.00
2018-06-21T20:04:22.617Z,100855.00
2018-06-21T20:06:51.854Z,100852.00
2018-06-21T20:09:21.051Z,100855.00
2018-06-21T20:11:50.273Z,100846.00
2018-06-21T20:14:19.738Z,100848.00
2018-06-21T20:16:48.858Z,100810.00
2018-06-21T20:19:19.282Z,100848.00
2018-06-21T20:21:48.456Z,100839.00
2018-06-21T20:24:17.684Z,100851.00
2018-06-21T20:26:46.879Z,100850.00
2018-06-21T20:29:21.469Z,100854.00
2018-06-21T20:31:50.640Z,100851.00
2018-06-21T20:34:19.702Z,100847.00
2018-06-21T20:36:48.812Z,100843.00
2018-06-21T20:39:17.938Z,100844.00
2018-06-21T20:41:47.115Z,100833.00
2018-06-21T20:44:16.285Z,100830.00
2018-06-21T20:46:45.385Z,100838.00
2018-06-21T20:49:14.573Z,100833.00
2018-06-21T20:51:43.664Z,100826.00
2018-06-21T20:54:12.956Z,100832.00
2018-06-21T20:56:42.175Z,100820.00
2018-06-21T20:59:11.355Z,100821.00
2018-06-21T21:01:40.773Z,100827.00
2018-06-21T21:04:10.121Z,100826.00
2018-06-21T21:06:39.603Z,100819.00
2018-06-21T21:09:09.255Z,100826.00
2018-06-21T21:11:38.401Z,100827.00
2018-06-21T21:14:07.728Z,100827.00
2018-06-21T21:16:36.955Z,100819.00
2018-06-21T21:19:05.994Z,100822.00
2018-06-21T21:21:35.066Z,100813.00
2018-06-21T21:24:04.185Z,100825.00
2018-06-21T21:26:33.292Z,100826.00
2018-06-21T21:29:02.589Z,100824.00
2018-06-21T21:31:31.772Z,100834.00
2018-06-21T21:34:00.989Z,100829.00
2018-06-21T21:36:30.057Z,100827.00
2018-06-21T21:38:59.274Z,100826.00
2018-06-21T21:41:28.434Z,100833.00
2018-06-21T21:43:57.495Z,100827.00
2018-06-21T21:46:26.641Z,100822.00
2018-06-21T21:48:55.717Z,100828.00
2018-06-21T21:51:24.837Z,100820.00
2018-06-21T21:53:53.937Z,100818.00
2018-06-21T21:56:23.004Z,100811.00
2018-06-21T21:58:52.251Z,100810.00
2018-06-21T22:01:21.408Z,100804.00
2018-06-21T22:03:50.598Z,100818.00
2018-06-21T22:06:19.865Z,100807.00
2018-06-21T22:08:49.232Z,100810.00
2018-06-21T22:11:18.414Z,100803.00
2018-06-21T22:13:47.846Z,100802.00
2018-06-21T22:16:17.009Z,100800.00
2018-06-21T22:18:46.133Z,100802.00
2018-06-21T22:21:15.201Z,100791.00
2018-06-21T22:23:44.341Z,100796.00
2018-06-21T22:26:13.658Z,100785.00
2018-06-21T22:28:42.828Z,100788.00
2018-06-21T22:31:12.143Z,100787.00
2018-06-21T22:33:41.301Z,100794.00
2018-06-21T22:36:10.367Z,100783.00
2018-06-21T22:38:39.570Z,100789.00
2018-06-21T22:41:08.916Z,100784.00
2018-06-21T22:43:38.492Z,100784.00
2018-06-21T22:46:08.073Z,100788.00
2018-06-21T22:48:37.539Z,100794.00
2018-06-21T22:51:06.698Z,100793.00
2018-06-21T22:53:35.728Z,100788.00
2018-06-21T22:56:04.958Z,100774.00
2018-06-21T22:58:34.047Z,100770.00
2018-06-21T23:01:03.210Z,100775.00
2018-06-21T23:03:32.378Z,100777.00
2018-06-21T23:06:01.678Z,100776.00
2018-06-21T23:08:30.848Z,100773.00
2018-06-21T23:11:00.395Z,100778.00
2018-06-21T23:13:29.751Z,100769.00
2018-06-21T23:15:59.095Z,100768.00
2018-06-21T23:18:45.281Z,100765.00
2018-06-21T23:21:14.382Z,100769.00
2018-06-21T23:23:43.579Z,100770.00
2018-06-21T23:26:12.719Z,100764.00
2018-06-21T23:28:41.968Z,100769.00
2018-06-21T23:31:11.245Z,100769.00
2018-06-21T23:33:40.410Z,100759.00
2018-06-21T23:36:09.524Z,100751.00
2018-06-21T23:38:38.669Z,100763.00
2018-06-21T23:41:07.819Z,100753.00
2018-06-21T23:43:37.022Z,100755.00
2018-06-21T23:46:06.311Z,100752.00
2018-06-21T23:48:35.630Z,100749.00
2018-06-21T23:51:04.847Z,100746.00
2018-06-21T23:53:33.993Z,100744.00
2018-06-21T23:56:03.226Z,100735.00
2018-06-21T23:58:32.347Z,100744.00
